createdAt,value
2022-10-13T00:00:04.140Z,18.30
2022-10-13T00:02:35.707Z,18.33
2022-10-13T00:05:00.673Z,22.83
2022-10-13T00:07:24.221Z,20.53
2022-10-13T00:09:47.825Z,27.97
2022-10-13T00:12:11.390Z,32.60
2022-10-13T00:14:35.023Z,30.57
2022-10-13T00:16:58.559Z,29.63
2022-10-13T00:19:22.125Z,25.00
2022-10-13T00:21:47.050Z,21.57
2022-10-13T00:24:12.706Z,21.90
2022-10-13T00:26:36.265Z,21.87
2022-10-13T00:29:03.872Z,21.57
2022-10-13T00:31:30.112Z,19.37
2022-10-13T00:33:53.993Z,20.00
2022-10-13T00:36:18.715Z,18.00
2022-10-13T00:38:43.803Z,18.83
2022-10-13T00:41:08.379Z,17.63
2022-10-13T00:43:53.519Z,17.20
2022-10-13T00:46:17.322Z,16.90
2022-10-13T00:48:43.327Z,16.90
2022-10-13T00:51:07.426Z,16.47
2022-10-13T00:53:36.271Z,17.53
2022-10-13T00:56:02.089Z,16.00
2022-10-13T00:58:31.318Z,16.73
2022-10-13T01:00:55.285Z,15.83
2022-10-13T01:03:21.125Z,16.77
2022-10-13T01:05:45.011Z,17.00
2022-10-13T01:08:09.491Z,17.50
2022-10-13T01:10:47.155Z,14.80
2022-10-13T01:13:19.383Z,15.57
2022-10-13T01:15:53.059Z,18.53
2022-10-13T01:18:24.616Z,18.83
2022-10-13T01:21:10.375Z,20.70
2022-10-13T01:24:18.630Z,18.77
2022-10-13T01:27:49.626Z,19.13
2022-10-13T01:30:19.762Z,19.93
2022-10-13T01:33:18.416Z,19.23
2022-10-13T01:35:58.294Z,17.90
2022-10-13T01:38:34.611Z,18.07
2022-10-13T01:41:10.671Z,18.93
2022-10-13T01:43:39.586Z,19.13
2022-10-13T01:46:09.497Z,16.93
2022-10-13T01:48:34.292Z,16.60
2022-10-13T01:51:00.207Z,16.93
2022-10-13T01:53:24.492Z,15.60
2022-10-13T01:55:55.455Z,14.27
2022-10-13T01:58:19.094Z,14.00
2022-10-13T02:00:51.250Z,15.47
2022-10-13T02:03:25.141Z,14.57
2022-10-13T02:05:55.183Z,13.97
2022-10-13T02:08:26.963Z,14.77
2022-10-13T02:11:00.486Z,15.23
2022-10-13T02:13:29.063Z,14.73
2022-10-13T02:15:56.720Z,13.70
2022-10-13T02:18:25.264Z,14.63
2022-10-13T02:20:49.671Z,14.60
2022-10-13T02:23:17.071Z,13.77
2022-10-13T02:25:41.963Z,13.77
2022-10-13T02:28:06.787Z,14.03
2022-10-13T02:30:42.175Z,14.50
2022-10-13T02:33:05.743Z,14.07
2022-10-13T02:35:32.858Z,13.97
2022-10-13T02:37:57.487Z,13.23
2022-10-13T02:40:21.060Z,14.87
2022-10-13T02:42:44.679Z,13.40
2022-10-13T02:45:10.398Z,13.57
2022-10-13T02:47:33.983Z,12.67
2022-10-13T02:50:00.601Z,12.70
2022-10-13T02:52:25.730Z,12.50
2022-10-13T02:54:49.271Z,12.10
2022-10-13T02:57:12.878Z,12.70
2022-10-13T02:59:40.235Z,12.97
2022-10-13T03:02:03.852Z,12.20
2022-10-13T03:04:28.472Z,12.30
2022-10-13T03:06:55.979Z,12.53
2022-10-13T03:09:20.916Z,11.50
2022-10-13T03:11:44.569Z,12.83
2022-10-13T03:14:08.110Z,11.63
2022-10-13T03:16:31.709Z,13.40
2022-10-13T03:18:55.311Z,11.83
2022-10-13T03:21:18.898Z,12.80
2022-10-13T03:23:42.532Z,12.27
2022-10-13T03:26:07.691Z,13.23
2022-10-13T03:28:31.475Z,12.23
2022-10-13T03:31:02.502Z,13.53
2022-10-13T03:33:26.172Z,11.60
2022-10-13T03:35:53.355Z,12.53
2022-10-13T03:38:16.940Z,11.77
2022-10-13T03:40:40.491Z,12.87
2022-10-13T03:43:05.504Z,13.10
2022-10-13T03:45:31.361Z,12.67
2022-10-13T03:47:54.928Z,12.50
2022-10-13T03:50:19.257Z,13.27
2022-10-13T03:52:42.831Z,13.60
2022-10-13T03:55:07.584Z,12.23
2022-10-13T03:57:31.443Z,15.00
2022-10-13T03:59:57.620Z,14.87
2022-10-13T04:02:23.602Z,12.97
2022-10-13T04:04:48.595Z,13.50
2022-10-13T04:07:12.474Z,13.40
2022-10-13T04:09:36.143Z,13.10
2022-10-13T04:11:59.753Z,13.37
2022-10-13T04:14:23.647Z,13.87
2022-10-13T04:16:48.999Z,13.87
2022-10-13T04:19:14.803Z,13.53
2022-10-13T04:21:38.503Z,13.53
2022-10-13T04:24:03.138Z,13.17
2022-10-13T04:26:29.415Z,13.63
2022-10-13T04:28:56.831Z,13.67
2022-10-13T04:31:22.100Z,13.27
2022-10-13T04:33:47.198Z,12.63
2022-10-13T04:36:13.403Z,13.10
2022-10-13T04:38:36.998Z,12.63
2022-10-13T04:41:00.699Z,13.70
2022-10-13T04:43:24.923Z,12.83
2022-10-13T04:45:49.154Z,13.00
2022-10-13T04:48:12.681Z,13.53
2022-10-13T04:50:37.728Z,14.27
2022-10-13T04:53:01.373Z,14.13
2022-10-13T04:55:24.988Z,15.00
2022-10-13T04:57:48.501Z,16.43
2022-10-13T05:00:13.774Z,13.83
2022-10-13T05:02:37.739Z,17.40
2022-10-13T05:05:01.354Z,19.03
2022-10-13T05:07:26.371Z,18.30
2022-10-13T05:09:49.948Z,17.20
2022-10-13T05:12:13.639Z,19.03
2022-10-13T05:14:37.310Z,17.07
2022-10-13T05:17:04.322Z,16.77
2022-10-13T05:19:28.185Z,15.27
2022-10-13T05:21:52.734Z,15.13
2022-10-13T05:24:17.790Z,14.43
2022-10-13T05:26:44.055Z,15.07
2022-10-13T05:29:07.852Z,14.33
2022-10-13T05:31:33.715Z,14.30
2022-10-13T05:33:58.360Z,14.20
2022-10-13T05:36:25.045Z,14.37
2022-10-13T05:38:52.958Z,14.10
2022-10-13T05:41:17.939Z,14.07
2022-10-13T05:43:43.274Z,15.20
2022-10-13T05:46:08.079Z,15.17
2022-10-13T05:48:33.083Z,15.57
2022-10-13T05:50:59.254Z,15.10
2022-10-13T05:53:25.441Z,15.87
2022-10-13T05:55:49.644Z,14.97
2022-10-13T05:58:14.843Z,15.40
2022-10-13T06:00:38.487Z,13.80
2022-10-13T06:03:08.434Z,15.37
2022-10-13T06:05:33.861Z,15.37
2022-10-13T06:07:58.181Z,15.23
2022-10-13T06:10:22.101Z,15.43
2022-10-13T06:12:45.764Z,15.17
2022-10-13T06:15:12.188Z,14.70
2022-10-13T06:17:38.419Z,15.73
2022-10-13T06:20:01.943Z,16.37
2022-10-13T06:22:25.591Z,15.43
2022-10-13T06:24:49.315Z,15.83
2022-10-13T06:27:13.433Z,16.87
2022-10-13T06:29:37.198Z,15.80
2022-10-13T06:32:02.131Z,16.60
2022-10-13T06:34:25.757Z,16.47
2022-10-13T06:36:49.296Z,14.90
2022-10-13T06:39:12.879Z,17.27
2022-10-13T06:41:36.528Z,16.13
2022-10-13T06:44:00.086Z,16.93
2022-10-13T06:46:26.061Z,16.03
2022-10-13T06:48:52.795Z,16.15
2022-10-13T06:51:16.972Z,15.83
2022-10-13T06:53:41.383Z,16.43
2022-10-13T06:56:08.288Z,16.37
2022-10-13T06:58:32.042Z,19.23
2022-10-13T07:00:56.245Z,17.23
2022-10-13T07:03:19.951Z,16.03
2022-10-13T07:05:44.952Z,17.43
2022-10-13T07:08:08.484Z,18.13
2022-10-13T07:10:32.023Z,17.77
2022-10-13T07:12:55.569Z,20.87
2022-10-13T07:15:20.329Z,18.60
2022-10-13T07:17:46.292Z,17.23
2022-10-13T07:20:11.191Z,16.97
2022-10-13T07:22:36.191Z,18.03
2022-10-13T07:24:59.789Z,19.67
2022-10-13T07:27:23.961Z,19.90
2022-10-13T07:29:47.768Z,19.93
2022-10-13T07:32:11.365Z,19.87
2022-10-13T07:34:35.156Z,18.95
2022-10-13T07:36:58.762Z,19.85
2022-10-13T07:39:23.710Z,19.33
2022-10-13T07:41:50.887Z,17.95
2022-10-13T07:44:14.735Z,20.00
2022-10-13T07:46:38.329Z,18.45
2022-10-13T07:49:01.959Z,19.67
2022-10-13T07:51:26.036Z,19.35
2022-10-13T07:53:50.798Z,17.23
2022-10-13T07:56:17.486Z,18.80
2022-10-13T07:58:44.529Z,18.35
2022-10-13T08:01:09.284Z,17.52
2022-10-13T08:06:06.889Z,17.02
2022-10-13T08:08:31.276Z,17.08
2022-10-13T08:10:55.720Z,17.55
2022-10-13T08:13:21.990Z,17.02
2022-10-13T08:15:46.686Z,17.42
2022-10-13T08:18:10.909Z,17.20
2022-10-13T08:20:41.114Z,17.73
2022-10-13T08:23:05.064Z,16.27
2022-10-13T08:25:28.795Z,17.50
2022-10-13T08:27:54.720Z,17.48
2022-10-13T08:30:23.605Z,17.25
2022-10-13T08:32:47.470Z,17.27
2022-10-13T08:35:11.801Z,16.17
2022-10-13T08:37:35.336Z,16.42
2022-10-13T08:39:58.885Z,16.80
2022-10-13T08:42:23.734Z,15.48
2022-10-13T08:45:35.795Z,16.15
2022-10-13T08:47:43.586Z,15.95
2022-10-13T08:50:15.174Z,16.27
2022-10-13T08:52:54.328Z,15.23
2022-10-13T08:55:32.977Z,15.15
2022-10-13T08:57:56.648Z,16.75
2022-10-13T09:00:22.926Z,15.15
2022-10-13T09:02:48.339Z,16.30
2022-10-13T09:05:21.008Z,16.63
2022-10-13T09:07:47.654Z,16.45
2022-10-13T09:10:12.192Z,17.42
2022-10-13T09:12:35.769Z,15.90
2022-10-13T09:15:01.564Z,16.38
2022-10-13T09:17:27.430Z,16.25
2022-10-13T09:20:02.887Z,16.08
2022-10-13T09:22:28.751Z,16.05
2022-10-13T09:25:12.086Z,16.48
2022-10-13T09:27:44.848Z,15.70
2022-10-13T09:30:32.594Z,16.85
2022-10-13T09:33:25.079Z,16.33
2022-10-13T09:36:07.955Z,15.73
2022-10-13T09:38:31.579Z,16.63
2022-10-13T09:41:03.841Z,16.67
2022-10-13T09:43:33.546Z,18.35
2022-10-13T09:45:57.514Z,17.13
2022-10-13T09:48:25.931Z,16.30
2022-10-13T09:50:53.746Z,17.13
2022-10-13T09:53:32.257Z,15.93
2022-10-13T09:56:11.987Z,15.93
2022-10-13T09:58:38.130Z,15.18
2022-10-13T10:01:01.784Z,14.68
2022-10-13T10:03:29.135Z,15.13
2022-10-13T10:05:56.286Z,14.90
2022-10-13T10:08:33.854Z,14.88
2022-10-13T10:11:06.223Z,14.30
2022-10-13T10:13:29.884Z,14.07
2022-10-13T10:15:59.683Z,15.10
2022-10-13T10:18:33.461Z,14.48
2022-10-13T10:21:07.622Z,14.85
2022-10-13T10:23:44.364Z,13.93
2022-10-13T10:26:23.211Z,14.20
2022-10-13T10:29:11.954Z,13.18
2022-10-13T10:31:51.796Z,13.75
2022-10-13T10:34:36.760Z,13.77
2022-10-13T10:37:22.779Z,13.75
2022-10-13T10:39:52.387Z,13.50
2022-10-13T10:42:42.484Z,13.60
2022-10-13T10:45:18.931Z,13.25
2022-10-13T10:47:47.423Z,13.48
2022-10-13T10:50:17.617Z,14.38
2022-10-13T10:52:54.371Z,13.77
2022-10-13T10:55:25.272Z,14.50
2022-10-13T10:58:01.922Z,13.35
2022-10-13T11:03:04.113Z,13.73
2022-10-13T11:05:32.888Z,12.95
2022-10-13T11:08:00.130Z,14.27
2022-10-13T11:10:26.414Z,13.30
2022-10-13T11:13:19.347Z,13.20
2022-10-13T11:15:46.413Z,13.55
2022-10-13T11:19:10.299Z,13.63
2022-10-13T11:22:21.163Z,12.32
2022-10-13T11:25:01.206Z,13.40
2022-10-13T11:27:40.028Z,13.32
2022-10-13T11:30:04.751Z,12.43
2022-10-13T11:32:56.367Z,12.80
2022-10-13T11:35:25.319Z,12.90
2022-10-13T11:38:09.241Z,12.65
2022-10-13T11:40:40.987Z,13.30
2022-10-13T11:43:22.476Z,11.60
2022-10-13T11:46:28.371Z,13.27
2022-10-13T11:49:43.955Z,12.88
2022-10-13T11:52:32.158Z,12.38
2022-10-13T11:55:03.163Z,13.75
2022-10-13T11:57:32.799Z,12.85
2022-10-13T11:59:58.690Z,12.73
2022-10-13T12:02:37.560Z,12.55
2022-10-13T12:05:05.119Z,12.45
2022-10-13T12:07:37.674Z,11.75
2022-10-13T12:10:01.700Z,11.82
2022-10-13T12:12:27.759Z,10.80
2022-10-13T12:14:53.296Z,10.32
2022-10-13T12:17:25.566Z,10.27
2022-10-13T12:19:49.591Z,8.02
2022-10-13T12:22:14.874Z,7.75
2022-10-13T12:24:38.740Z,7.45
2022-10-13T12:27:12.988Z,6.88
2022-10-13T12:29:41.780Z,7.07
2022-10-13T12:32:18.221Z,6.70
2022-10-13T12:34:41.808Z,6.53
2022-10-13T12:37:16.391Z,7.13
2022-10-13T12:39:40.727Z,6.85
2022-10-13T12:42:08.111Z,7.28
2022-10-13T12:44:35.012Z,6.72
2022-10-13T12:47:02.316Z,7.28
2022-10-13T12:49:29.041Z,7.25
2022-10-13T12:51:55.790Z,6.70
2022-10-13T12:54:24.007Z,7.07
2022-10-13T12:56:50.215Z,7.03
2022-10-13T12:59:18.866Z,7.22
2022-10-13T13:01:44.935Z,7.30
2022-10-13T13:04:32.098Z,7.00
2022-10-13T13:06:58.615Z,7.32
2022-10-13T13:09:26.923Z,7.40
2022-10-13T13:12:30.415Z,7.05
2022-10-13T13:14:55.986Z,7.40
2022-10-13T13:17:52.810Z,9.38
2022-10-13T13:20:26.328Z,10.70
2022-10-13T13:22:50.758Z,27.55
2022-10-13T13:25:14.486Z,7.70
2022-10-13T13:27:41.036Z,8.48
2022-10-13T13:30:05.167Z,9.13
2022-10-13T13:32:30.992Z,7.90
2022-10-13T13:34:54.859Z,7.63
2022-10-13T13:37:31.040Z,8.30
2022-10-13T13:39:55.079Z,8.50
2022-10-13T13:42:18.851Z,14.20
2022-10-13T13:44:44.451Z,46.83
2022-10-13T13:47:17.442Z,8.55
2022-10-13T13:49:42.324Z,8.68
2022-10-13T13:52:06.456Z,15.65
2022-10-13T13:54:31.407Z,8.60
2022-10-13T13:56:58.793Z,8.10
2022-10-13T13:59:23.327Z,7.82
2022-10-13T14:01:49.589Z,7.90
2022-10-13T14:04:18.667Z,9.10
2022-10-13T14:06:42.252Z,8.88
2022-10-13T14:09:06.409Z,8.07
2022-10-13T14:11:31.335Z,9.40
2022-10-13T14:13:54.947Z,9.15
2022-10-13T14:16:23.991Z,8.27
2022-10-13T14:18:48.003Z,8.40
2022-10-13T14:21:11.579Z,8.13
2022-10-13T14:23:35.163Z,9.27
2022-10-13T14:25:58.652Z,7.93
2022-10-13T14:28:23.788Z,8.57
2022-10-13T14:30:47.316Z,8.00
2022-10-13T14:33:11.231Z,7.82
2022-10-13T14:35:34.767Z,8.27
2022-10-13T14:38:00.860Z,8.20
2022-10-13T14:40:24.547Z,8.80
2022-10-13T14:42:48.121Z,8.50
2022-10-13T14:45:15.765Z,7.95
2022-10-13T14:47:39.326Z,8.27
2022-10-13T14:50:03.301Z,8.07
2022-10-13T14:52:26.895Z,8.40
2022-10-13T14:54:50.689Z,8.02
2022-10-13T14:57:16.469Z,11.30
2022-10-13T14:59:39.978Z,12.88
2022-10-13T15:02:04.995Z,10.52
2022-10-13T15:04:29.448Z,11.88
2022-10-13T15:06:54.202Z,11.77
2022-10-13T15:09:17.956Z,10.73
2022-10-13T15:11:41.580Z,10.50
2022-10-13T15:14:05.758Z,9.90
2022-10-13T15:16:33.345Z,8.95
2022-10-13T15:18:58.315Z,8.70
2022-10-13T15:21:22.346Z,11.65
2022-10-13T15:23:46.739Z,8.10
2022-10-13T15:26:13.175Z,7.70
2022-10-13T15:28:40.017Z,8.02
2022-10-13T15:31:07.529Z,7.75
2022-10-13T15:33:31.108Z,8.02
2022-10-13T15:35:56.370Z,8.10
2022-10-13T15:38:21.867Z,8.52
2022-10-13T15:40:45.816Z,8.93
2022-10-13T15:43:09.434Z,8.00
2022-10-13T15:45:33.144Z,8.05
2022-10-13T15:47:57.710Z,8.75
2022-10-13T15:50:21.366Z,8.75
2022-10-13T15:52:46.632Z,9.10
2022-10-13T15:55:12.075Z,9.00
2022-10-13T15:57:35.586Z,8.73
2022-10-13T15:59:59.207Z,9.25
2022-10-13T16:02:23.583Z,9.35
2022-10-13T16:04:47.438Z,9.20
2022-10-13T16:07:10.975Z,9.55
2022-10-13T16:09:35.988Z,10.05
2022-10-13T16:11:59.517Z,10.07
2022-10-13T16:14:23.198Z,9.25
2022-10-13T16:16:46.775Z,9.75
2022-10-13T16:19:10.331Z,12.60
2022-10-13T16:21:33.972Z,11.50
2022-10-13T16:24:01.371Z,12.10
2022-10-13T16:26:26.279Z,12.30
2022-10-13T16:28:49.963Z,12.88
2022-10-13T16:31:15.728Z,12.55
2022-10-13T16:33:39.902Z,22.52
2022-10-13T16:36:04.596Z,16.10
2022-10-13T16:38:28.344Z,16.40
2022-10-13T16:40:51.835Z,15.48
2022-10-13T16:43:16.928Z,17.33
2022-10-13T16:46:00.053Z,17.52
2022-10-13T16:48:24.104Z,16.90
2022-10-13T16:50:47.813Z,16.00
2022-10-13T16:53:11.517Z,16.48
2022-10-13T16:55:35.167Z,15.70
2022-10-13T16:57:58.723Z,15.35
2022-10-13T17:00:24.002Z,16.02
2022-10-13T17:02:47.757Z,15.52
2022-10-13T17:05:11.480Z,15.48
2022-10-13T17:07:35.213Z,14.10
2022-10-13T17:09:58.827Z,15.48
2022-10-13T17:12:22.519Z,16.88
2022-10-13T17:14:46.012Z,15.70
2022-10-13T17:17:11.395Z,15.38
2022-10-13T17:19:36.087Z,14.63
2022-10-13T17:21:59.909Z,13.98
2022-10-13T17:24:23.591Z,15.25
2022-10-13T17:26:47.219Z,17.05
2022-10-13T17:29:10.767Z,17.95
2022-10-13T17:31:34.480Z,16.70
2022-10-13T17:34:00.718Z,16.55
2022-10-13T17:36:27.202Z,16.77
2022-10-13T17:38:51.644Z,16.80
2022-10-13T17:41:15.832Z,16.98
2022-10-13T17:43:45.454Z,16.77
2022-10-13T17:46:35.138Z,16.63
2022-10-13T17:48:58.395Z,16.80
2022-10-13T17:51:22.224Z,21.75
2022-10-13T17:53:46.704Z,24.77
2022-10-13T17:56:15.018Z,21.30
2022-10-13T17:58:39.584Z,20.60
2022-10-13T18:01:13.320Z,20.70
2022-10-13T18:03:39.127Z,22.10
2022-10-13T18:06:04.592Z,25.15
2022-10-13T18:08:28.191Z,26.02
2022-10-13T18:11:08.456Z,26.88
2022-10-13T18:13:32.422Z,24.63
2022-10-13T18:15:56.059Z,25.05
2022-10-13T18:18:19.679Z,23.77
2022-10-13T18:20:43.220Z,23.95
2022-10-13T18:23:08.242Z,27.65
2022-10-13T18:25:36.847Z,28.55
2022-10-13T18:28:00.474Z,26.67
2022-10-13T18:30:24.034Z,26.40
2022-10-13T18:32:47.641Z,25.20
2022-10-13T18:35:11.435Z,29.27
2022-10-13T18:37:35.085Z,27.60
2022-10-13T18:40:00.086Z,26.92
2022-10-13T18:42:23.779Z,27.27
2022-10-13T18:44:47.348Z,29.85
2022-10-13T18:47:10.911Z,27.85
2022-10-13T18:49:34.563Z,29.60
2022-10-13T18:51:59.468Z,27.58
2022-10-13T18:54:23.043Z,27.90
2022-10-13T18:56:48.134Z,28.23
2022-10-13T18:59:12.767Z,25.45
2022-10-13T19:01:39.029Z,26.83
2022-10-13T19:04:02.728Z,25.83
2022-10-13T19:06:28.219Z,24.10
2022-10-13T19:08:51.823Z,25.55
2022-10-13T19:11:17.952Z,27.70
2022-10-13T19:13:43.135Z,27.65
2022-10-13T19:16:08.170Z,29.02
2022-10-13T19:18:31.708Z,27.85
2022-10-13T19:20:55.375Z,27.80
2022-10-13T19:23:19.073Z,27.70
2022-10-13T19:25:43.610Z,27.95
2022-10-13T19:28:07.664Z,27.23
2022-10-13T19:30:32.622Z,26.13
2022-10-13T19:32:56.143Z,31.40
2022-10-13T19:35:19.874Z,29.92
2022-10-13T19:37:43.488Z,27.98
2022-10-13T19:40:09.735Z,34.15
2022-10-13T19:42:33.819Z,29.55
2022-10-13T19:44:58.361Z,27.73
2022-10-13T19:47:23.540Z,27.27
2022-10-13T19:49:47.374Z,27.08
2022-10-13T19:52:10.960Z,28.27
2022-10-13T19:54:37.162Z,29.15
2022-10-13T19:57:00.752Z,27.42
2022-10-13T19:59:24.307Z,25.23
2022-10-13T20:01:48.037Z,25.60
2022-10-13T20:04:14.250Z,28.92
2022-10-13T20:06:40.318Z,26.25
2022-10-13T20:09:04.645Z,27.25
2022-10-13T20:11:28.595Z,25.63
2022-10-13T20:13:52.869Z,27.35
2022-10-13T20:16:18.743Z,29.38
2022-10-13T20:18:42.736Z,31.00
2022-10-13T20:21:10.059Z,26.35
2022-10-13T20:23:34.564Z,25.45
2022-10-13T20:25:58.091Z,26.05
2022-10-13T20:28:25.123Z,26.05
2022-10-13T20:30:48.751Z,32.13
2022-10-13T20:33:12.815Z,33.80
2022-10-13T20:35:36.354Z,29.67
2022-10-13T20:38:01.319Z,27.63
2022-10-13T20:40:25.083Z,31.65
2022-10-13T20:42:52.046Z,31.45
2022-10-13T20:45:17.206Z,31.55
2022-10-13T20:47:40.912Z,29.35
2022-10-13T20:50:08.476Z,28.88
2022-10-13T20:52:32.964Z,28.92
2022-10-13T20:54:57.856Z,30.50
2022-10-13T20:57:22.326Z,33.53
2022-10-13T20:59:47.148Z,36.33
2022-10-13T21:02:14.112Z,31.17
2022-10-13T21:04:37.651Z,31.55
2022-10-13T21:07:01.183Z,32.35
2022-10-13T21:09:24.806Z,30.33
2022-10-13T21:11:49.863Z,32.03
2022-10-13T21:14:13.438Z,32.70
2022-10-13T21:16:37.674Z,31.15
2022-10-13T21:19:05.844Z,30.63
2022-10-13T21:21:32.896Z,33.55
2022-10-13T21:23:59.058Z,37.58
2022-10-13T21:26:23.808Z,37.72
2022-10-13T21:28:49.001Z,37.55
2022-10-13T21:31:15.607Z,33.28
2022-10-13T21:33:41.327Z,35.13
2022-10-13T21:36:08.395Z,33.42
2022-10-13T21:38:31.934Z,31.70
2022-10-13T21:40:55.559Z,33.67
2022-10-13T21:43:19.070Z,35.55
2022-10-13T21:45:44.027Z,32.95
2022-10-13T21:48:08.224Z,33.80
2022-10-13T21:50:32.127Z,38.85
2022-10-13T21:52:55.630Z,32.67
2022-10-13T21:55:22.313Z,34.95
2022-10-13T21:57:47.247Z,36.97
2022-10-13T22:00:12.503Z,38.22
2022-10-13T22:02:37.575Z,36.65
2022-10-13T22:05:01.157Z,35.58
2022-10-13T22:07:24.710Z,34.38
2022-10-13T22:09:48.327Z,36.97
2022-10-13T22:12:11.875Z,38.95
2022-10-13T22:14:35.445Z,40.85
2022-10-13T22:16:58.992Z,36.90
2022-10-13T22:19:24.355Z,38.08
2022-10-13T22:21:49.922Z,36.15
2022-10-13T22:24:16.375Z,40.45
2022-10-13T22:26:42.214Z,37.40
2022-10-13T22:29:08.000Z,36.90
2022-10-13T22:31:33.296Z,36.88
2022-10-13T22:34:03.320Z,36.47
2022-10-13T22:36:30.842Z,36.17
2022-10-13T22:38:57.634Z,34.47
2022-10-13T22:41:22.325Z,32.28
2022-10-13T22:43:47.914Z,32.05
2022-10-13T22:46:12.314Z,34.25
2022-10-13T22:48:40.585Z,36.83
2022-10-13T22:51:06.060Z,35.53
2022-10-13T22:53:31.445Z,36.42
2022-10-13T22:55:55.015Z,34.15
2022-10-13T22:58:18.567Z,33.88
2022-10-13T23:00:43.063Z,37.53
2022-10-13T23:03:07.617Z,35.83
2022-10-13T23:05:31.319Z,35.17
2022-10-13T23:07:55.079Z,38.92
2022-10-13T23:10:20.118Z,36.92
2022-10-13T23:12:43.646Z,37.63
2022-10-13T23:15:09.115Z,43.58
2022-10-13T23:17:32.676Z,39.22
2022-10-13T23:19:56.331Z,39.08
2022-10-13T23:22:19.876Z,41.40
2022-10-13T23:24:43.629Z,42.42
2022-10-13T23:27:08.536Z,35.90
2022-10-13T23:29:32.103Z,42.20
2022-10-13T23:31:55.644Z,37.50
2022-10-13T23:34:19.279Z,35.42
2022-10-13T23:36:42.787Z,37.53
2022-10-13T23:39:08.087Z,38.22
2022-10-13T23:41:32.369Z,39.22
2022-10-13T23:43:57.643Z,37.75
2022-10-13T23:46:21.558Z,35.47
2022-10-13T23:48:45.199Z,34.22
2022-10-13T23:51:10.746Z,36.40
2022-10-13T23:53:36.579Z,37.90
2022-10-13T23:56:03.031Z,39.67
2022-10-13T23:58:26.879Z,38.65
